Terminal Aerodrome Forecast
Issued by NWS Charleston, SC

Home | Current Version | Previous Version | Text Only | Print | Product List | Glossary On
Versions: 1 2 3 4 5 6 7 8 9 10 11 12 13 14 15 16 17 18 19 20 21 22 23 24 25 26 27 28 29 30 31 32 33
000
FTUS42 KCHS 151000 AAA
TAFCHS
TAF AMD
KCHS 151008Z 1510/1606 03005KT 4SM BR SCT004 OVC006
      TEMPO 1510/1512 SCT003 OVC004
     FM151300 VRB03KT P6SM SCT010 BKN020
     FM151800 VRB03KT P6SM SCT015 OVC050
      TEMPO 1519/1522 4SM -TSRA BR BKN040CB
     FM152200 13006KT P6SM BKN040=

USA.gov is the U.S. government's official web portal to all federal, state and local government web resources and services.